Time;durP1;ratioP1;P1;durP2;ratioP2;P2;SDS_P1;SDS_P2;PMS_P1;PMS_P2;Temp;Humidity;BMP_temperature;BMP_pressure;BME280_temperature;BME280_humidity;BME280_pressure;Samples;Min_cycle;Max_cycle;Signal;HPM_P1;HPM_P2
2022/02/08 00:00:06;;;;;;;5.68;2.30;;;;;;;16.96;54.44;102479.34;4995951;28;20035;-82
2022/02/08 00:02:41;;;;;;;5.97;2.05;;;;;;;16.96;55.02;102471.53;4990064;28;20030;-81
2022/02/08 00:05:08;;;;;;;8.05;2.30;;;;;;;16.97;54.83;102473.31;5007688;28;20042;-82
2022/02/08 00:07:34;;;;;;;5.30;1.98;;;;;;;16.96;54.69;102469.84;5008784;28;20105;-81
2022/02/08 00:10:00;;;;;;;4.47;1.90;;;;;;;16.96;54.66;102464.63;4956568;29;20059;-83
2022/02/08 00:12:25;;;;;;;5.93;2.40;;;;;;;16.95;54.54;102475.88;4959403;29;20039;-81
2022/02/08 00:14:52;;;;;;;6.05;2.40;;;;;;;16.95;54.69;102486.25;4968334;28;20027;-83
2022/02/08 00:17:18;;;;;;;7.05;2.42;;;;;;;16.95;54.53;102483.66;4956931;28;20042;-81
2022/02/08 00:19:43;;;;;;;5.53;2.05;;;;;;;16.96;54.37;102494.94;4980230;28;20027;-81
2022/02/08 00:22:09;;;;;;;5.35;2.30;;;;;;;16.95;54.46;102488.88;4991636;28;20037;-82
2022/02/08 00:24:34;;;;;;;6.82;2.20;;;;;;;16.95;54.61;102488.88;4974092;28;20033;-81
2022/02/08 00:27:00;;;;;;;5.63;2.05;;;;;;;16.95;54.47;102482.78;4996221;28;20105;-83
2022/02/08 00:29:25;;;;;;;6.07;2.22;;;;;;;16.95;54.22;102494.06;4960582;29;20051;-82
2022/02/08 00:31:51;;;;;;;4.90;1.98;;;;;;;16.95;54.50;102488.00;4975157;29;20031;-83
2022/02/08 00:34:17;;;;;;;5.53;2.15;;;;;;;16.95;54.11;102491.47;4960814;28;20035;-83
2022/02/08 00:36:42;;;;;;;5.00;2.20;;;;;;;16.95;54.72;102491.47;4978111;28;20031;-83
2022/02/08 00:39:09;;;;;;;5.68;2.22;;;;;;;16.95;54.62;102486.25;4961151;28;20026;-82
2022/02/08 00:41:36;;;;;;;6.20;2.33;;;;;;;16.95;54.60;102490.59;4962022;28;20031;-83
2022/02/08 00:44:16;;;;;;;6.22;2.38;;;;;;;16.94;54.31;102476.72;4977406;28;20031;-83
2022/02/08 00:46:49;;;;;;;4.35;1.70;;;;;;;16.94;54.33;102471.53;4979554;28;20026;-83
2022/02/08 00:49:14;;;;;;;4.15;1.80;;;;;;;16.94;54.43;102474.13;4980609;28;20042;-83
2022/02/08 00:51:52;;;;;;;4.82;2.00;;;;;;;16.94;54.61;102466.31;4996382;28;20026;-83
2022/02/08 00:54:18;;;;;;;6.30;2.35;;;;;;;16.95;54.47;102464.59;4965620;28;20058;-82
2022/02/08 00:56:45;;;;;;;6.85;1.95;;;;;;;16.95;54.43;102464.59;4963589;28;20027;-83
2022/02/08 00:59:10;;;;;;;5.70;1.90;;;;;;;16.94;54.29;102461.13;4992478;28;20031;-83
2022/02/08 01:01:38;;;;;;;4.97;1.92;;;;;;;16.95;54.28;102467.19;4991567;28;20042;-83
2022/02/08 01:04:09;;;;;;;4.57;1.95;;;;;;;16.95;54.21;102456.78;4978384;28;20033;-83
2022/02/08 01:06:36;;;;;;;5.75;2.20;;;;;;;16.95;54.39;102456.78;4994334;28;20042;-82
2022/02/08 01:09:17;;;;;;;5.63;2.13;;;;;;;16.96;54.33;102466.34;4994129;28;20081;-83
2022/02/08 01:11:45;;;;;;;5.40;2.08;;;;;;;16.95;54.61;102464.59;4984055;28;20027;-83
2022/02/08 01:14:12;;;;;;;5.15;2.20;;;;;;;16.94;54.27;102463.72;4958547;28;20507;-81
2022/02/08 01:16:38;;;;;;;4.40;1.75;;;;;;;16.94;54.46;102465.41;4990377;28;20029;-82
2022/02/08 01:19:05;;;;;;;6.10;2.13;;;;;;;16.94;54.62;102468.03;4978959;28;20117;-82
2022/02/08 01:21:31;;;;;;;5.32;2.20;;;;;;;16.94;54.17;102484.53;4992523;28;20049;-82
2022/02/08 01:23:58;;;;;;;6.45;2.10;;;;;;;16.93;54.20;102472.34;4977753;28;20117;-82
2022/02/08 01:26:24;;;;;;;5.38;2.13;;;;;;;16.94;54.37;102479.31;4990382;28;20035;-83
2022/02/08 01:29:00;;;;;;;3.92;1.90;;;;;;;16.95;54.26;102475.00;4948880;28;20094;-83
2022/02/08 01:31:28;;;;;;;5.32;1.70;;;;;;;16.95;54.22;102473.25;5009058;28;20478;-83
2022/02/08 01:36:54;;;;;;;6.63;2.30;;;;;;;16.94;54.11;102481.94;4994312;28;20031;-83
2022/02/08 01:39:32;;;;;;;4.70;2.05;;;;;;;16.95;54.10;102477.59;4993130;28;20041;-84
2022/02/08 01:44:57;;;;;;;5.30;1.88;;;;;;;16.94;54.25;102488.81;4978474;28;20044;-82
2022/02/08 01:47:45;;;;;;;4.63;1.60;;;;;;;16.94;54.20;102491.44;4978554;28;20026;-84
2022/02/08 01:50:14;;;;;;;4.65;1.80;;;;;;;16.94;54.15;102484.53;4979040;28;20220;-83
2022/02/08 01:52:40;;;;;;;6.43;2.13;;;;;;;16.94;54.31;102488.81;4999496;28;20030;-82
2022/02/08 01:55:08;;;;;;;4.55;1.70;;;;;;;16.94;54.07;102497.53;4994899;28;20030;-83
2022/02/08 01:57:33;;;;;;;5.60;1.73;;;;;;;16.94;54.09;102494.94;4987380;28;20033;-77
2022/02/08 01:59:59;;;;;;;4.45;1.80;;;;;;;16.94;54.05;102504.44;4983386;28;20038;-77
2022/02/08 02:02:24;;;;;;;6.60;1.85;;;;;;;16.94;54.14;102499.22;4979889;28;20517;-77
2022/02/08 02:04:50;;;;;;;3.33;1.58;;;;;;;16.93;54.31;102498.34;4962859;28;20069;-77
2022/02/08 02:07:18;;;;;;;5.47;2.15;;;;;;;16.93;54.25;102498.34;4947200;28;20121;-77
2022/02/08 02:09:47;;;;;;;5.70;1.73;;;;;;;16.93;54.17;102490.56;4978038;28;20035;-77
2022/02/08 02:12:14;;;;;;;4.28;1.90;;;;;;;16.93;54.28;102489.69;4963220;28;20031;-77
2022/02/08 02:14:40;;;;;;;6.10;2.10;;;;;;;16.93;54.16;102498.34;4963946;28;20035;-78
2022/02/08 02:17:09;;;;;;;5.05;1.90;;;;;;;16.94;54.11;102499.22;4964024;28;20460;-77
2022/02/08 02:19:36;;;;;;;4.63;1.70;;;;;;;16.93;54.05;102498.34;4994739;28;20029;-79
2022/02/08 02:22:03;;;;;;;3.63;1.45;;;;;;;16.94;54.06;102504.44;4981779;28;20022;-79
2022/02/08 02:24:28;;;;;;;4.90;1.83;;;;;;;16.94;54.12;102491.44;4970585;28;20035;-78
2022/02/08 02:26:57;;;;;;;4.38;1.70;;;;;;;16.94;53.87;102488.81;4947699;28;20058;-78
2022/02/08 02:29:24;;;;;;;6.55;1.63;;;;;;;16.93;54.07;102500.09;4960117;28;20425;-77
2022/02/08 02:31:50;;;;;;;3.83;1.60;;;;;;;16.92;54.08;102483.63;4981419;28;20031;-76
2022/02/08 02:34:17;;;;;;;5.70;1.80;;;;;;;16.93;54.01;102498.34;4943346;29;20046;-77
2022/02/08 02:36:44;;;;;;;5.43;1.80;;;;;;;16.93;53.95;102503.56;4960740;29;20086;-79
2022/02/08 02:39:09;;;;;;;4.03;1.73;;;;;;;16.91;53.87;102497.44;4952488;28;20034;-76
2022/02/08 02:41:36;;;;;;;5.72;1.92;;;;;;;16.93;54.05;102497.50;4947435;28;20030;-77
2022/02/08 02:44:07;;;;;;;5.22;1.90;;;;;;;16.92;54.14;102501.81;4964162;28;20080;-77
2022/02/08 02:46:32;;;;;;;4.60;1.70;;;;;;;16.93;54.06;102490.56;4964251;28;20117;-77
2022/02/08 02:48:58;;;;;;;6.20;2.03;;;;;;;16.92;54.10;102486.22;4964728;28;20047;-77
2022/02/08 02:51:25;;;;;;;4.40;1.58;;;;;;;16.93;54.07;102476.69;4961737;28;20038;-77
2022/02/08 02:53:50;;;;;;;4.38;1.88;;;;;;;16.92;53.99;102478.41;4967283;28;20097;-77
2022/02/08 02:56:15;;;;;;;4.18;1.55;;;;;;;16.92;53.98;102473.22;4966562;28;20053;-77
2022/02/08 02:58:42;;;;;;;4.00;1.70;;;;;;;16.93;54.15;102485.34;5001130;28;20051;-77
2022/02/08 03:20:10;;;;;;;5.60;1.83;;;;;;;16.91;54.07;102506.97;4918660;28;20036;-77
2022/02/08 03:22:36;;;;;;;4.13;1.55;;;;;;;16.91;53.91;102513.06;4946131;28;20030;-77
2022/02/08 03:25:03;;;;;;;5.75;1.98;;;;;;;16.92;53.91;102508.72;4984246;28;20038;-78
2022/02/08 03:27:29;;;;;;;4.57;1.60;;;;;;;16.91;53.98;102509.59;4977296;28;20034;-78
2022/02/08 03:29:54;;;;;;;4.35;1.73;;;;;;;16.91;53.77;102515.66;4978422;28;20026;-78
2022/02/08 03:32:22;;;;;;;6.18;1.63;;;;;;;16.91;54.02;102513.06;4950441;28;20033;-77
2022/02/08 03:34:47;;;;;;;4.95;1.70;;;;;;;16.91;53.96;102499.19;4972437;28;20026;-77
2022/02/08 03:37:13;;;;;;;5.28;2.13;;;;;;;16.90;53.95;102513.91;4971447;28;20091;-77
2022/02/08 03:39:41;;;;;;;4.97;1.67;;;;;;;16.92;54.26;102519.13;4954320;28;20030;-77
2022/02/08 03:42:16;;;;;;;5.13;1.83;;;;;;;16.91;54.09;102515.66;4956790;29;20039;-77
2022/02/08 03:44:45;;;;;;;5.63;1.98;;;;;;;16.91;53.99;102509.59;4956323;28;20026;-77
2022/02/08 03:47:11;;;;;;;5.00;1.98;;;;;;;16.91;54.01;102528.66;4982898;28;20034;-77
2022/02/08 03:49:37;;;;;;;5.20;1.80;;;;;;;16.91;54.09;102528.66;4971249;28;20058;-77
2022/02/08 03:52:05;;;;;;;4.85;1.70;;;;;;;16.91;54.01;102530.38;4986661;28;20053;-77
2022/02/08 03:54:31;;;;;;;5.15;1.70;;;;;;;16.89;54.05;102522.53;4956474;28;20094;-77
2022/02/08 03:56:57;;;;;;;5.05;1.98;;;;;;;16.91;54.04;102517.38;4978714;28;20027;-77
2022/02/08 03:59:22;;;;;;;4.03;1.60;;;;;;;16.89;53.91;102506.94;4955957;28;20031;-77
2022/02/08 04:04:31;;;;;;;4.03;1.52;;;;;;;16.90;54.03;102524.31;5004220;28;20404;-77
2022/02/08 04:07:01;;;;;;;4.38;1.92;;;;;;;16.90;53.93;102516.50;4960012;28;20030;-77
2022/02/08 04:09:27;;;;;;;5.20;1.70;;;;;;;16.90;54.07;102520.81;4986772;28;20032;-77
2022/02/08 04:12:03;;;;;;;5.03;1.98;;;;;;;16.90;53.93;102511.31;4960785;28;20067;-77
2022/02/08 04:16:58;;;;;;;5.13;1.83;;;;;;;16.90;53.93;102513.00;4971705;28;20062;-77
2022/02/08 04:19:31;;;;;;;3.92;1.70;;;;;;;16.89;53.85;102506.94;4966184;28;20030;-76
2022/02/08 04:33:19;;;;;;;4.50;1.70;;;;;;;16.89;53.89;102509.53;4985538;28;19940;-78
2022/02/08 04:41:17;;;;;;;5.03;1.60;;;;;;;16.89;53.95;102508.66;4993276;28;20077;-76
2022/02/08 04:43:53;;;;;;;4.47;1.40;;;;;;;16.88;53.88;102518.22;4976645;28;20087;-77
2022/02/08 04:48:56;;;;;;;5.68;2.00;;;;;;;16.88;53.87;102528.59;4954103;28;20062;-77
2022/02/08 04:51:34;;;;;;;3.78;1.50;;;;;;;16.89;53.96;102529.47;4955949;28;20106;-77
2022/02/08 04:56:39;;;;;;;4.28;1.65;;;;;;;16.88;54.12;102531.22;4981855;28;20034;-77
2022/02/08 05:45:29;;;;;;;5.70;2.00;;;;;;;16.87;53.89;102503.44;4965667;28;20016;-79
2022/02/08 05:47:58;;;;;;;7.72;2.45;;;;;;;16.87;53.89;102503.44;4959667;28;20034;-78
2022/02/08 05:55:24;;;;;;;6.00;2.10;;;;;;;16.87;53.94;102493.03;4997360;28;20362;-79
2022/02/08 05:57:53;;;;;;;9.25;2.42;;;;;;;16.86;53.97;102501.69;4980345;28;20030;-77
2022/02/08 06:00:20;;;;;;;8.63;2.28;;;;;;;16.88;53.89;102509.53;4964060;28;20030;-79
2022/02/08 06:02:48;;;;;;;8.80;2.92;;;;;;;16.87;53.94;102508.63;4963427;28;20117;-80
2022/02/08 06:05:18;;;;;;;10.68;2.70;;;;;;;16.87;54.15;102508.63;4982239;28;20022;-82
2022/02/08 06:07:43;;;;;;;12.45;3.13;;;;;;;16.86;54.05;102510.38;4965881;28;20039;-81
2022/02/08 06:10:09;;;;;;;10.15;2.63;;;;;;;16.86;54.58;102507.75;4968384;28;20400;-82
2022/02/08 06:12:50;;;;;;;10.90;3.20;;;;;;;16.88;54.43;102512.13;5000093;28;20085;-82
2022/02/08 06:15:19;;;;;;;15.40;3.53;;;;;;;16.88;54.48;102505.22;4988959;28;20081;-82
2022/02/08 06:17:44;;;;;;;7.20;2.67;;;;;;;16.88;54.25;102505.22;4982207;28;20034;-82
2022/02/08 06:20:11;;;;;;;7.38;2.70;;;;;;;16.89;54.23;102516.47;4971287;28;20034;-82
2022/02/08 06:22:36;;;;;;;7.40;2.60;;;;;;;16.90;54.39;102510.41;4990795;28;20105;-82
2022/02/08 06:25:04;;;;;;;8.20;3.17;;;;;;;16.91;54.45;102519.97;4972559;28;20058;-82
2022/02/08 06:27:31;;;;;;;8.65;2.72;;;;;;;16.90;54.71;102519.13;5006582;28;20030;-82
2022/02/08 06:30:00;;;;;;;7.75;3.10;;;;;;;16.92;54.42;102519.13;4969399;28;20026;-81
2022/02/08 06:32:32;;;;;;;8.48;2.70;;;;;;;16.92;54.53;102520.03;4985636;28;20029;-82
2022/02/08 06:34:59;;;;;;;6.43;2.47;;;;;;;16.91;54.62;102514.78;4981296;28;20404;-83
2022/02/08 06:37:27;;;;;;;7.18;2.80;;;;;;;16.90;54.47;102511.31;4975010;28;20034;-83
2022/02/08 06:39:53;;;;;;;7.78;2.80;;;;;;;16.91;54.61;102517.38;4975698;28;20030;-83
2022/02/08 06:42:18;;;;;;;7.68;2.42;;;;;;;16.92;54.56;102511.31;4960620;28;20143;-83
2022/02/08 06:44:43;;;;;;;8.43;2.53;;;;;;;16.92;54.62;102509.63;4991011;28;20034;-83
2022/02/08 06:47:09;;;;;;;5.78;2.28;;;;;;;16.92;54.47;102517.44;4991585;28;20093;-83
2022/02/08 06:49:35;;;;;;;6.78;2.67;;;;;;;16.92;54.83;102506.13;4991949;28;20053;-83
2022/02/08 06:52:00;;;;;;;6.55;2.63;;;;;;;16.92;54.61;102504.41;4960095;28;20026;-83
2022/02/08 06:54:26;;;;;;;6.65;2.40;;;;;;;16.93;54.69;102519.16;4991280;28;20366;-83
2022/02/08 06:56:51;;;;;;;4.75;2.13;;;;;;;16.93;54.64;102511.38;4973500;28;20026;-83
2022/02/08 06:59:18;;;;;;;6.72;2.30;;;;;;;16.93;54.59;102506.16;4971425;28;20034;-82
2022/02/08 07:01:45;;;;;;;7.15;2.80;;;;;;;16.95;54.51;102506.19;5005537;28;20022;-82
2022/02/08 07:04:14;;;;;;;5.72;2.33;;;;;;;16.95;54.59;102514.00;4973850;28;20100;-83
2022/02/08 07:06:44;;;;;;;6.45;2.40;;;;;;;16.94;54.55;102526.13;5005682;28;20055;-82
2022/02/08 07:09:11;;;;;;;6.75;2.58;;;;;;;16.95;54.68;102516.59;4972169;28;20061;-82
2022/02/08 07:11:36;;;;;;;4.43;2.20;;;;;;;16.95;54.64;102524.41;4971093;28;20037;-82
2022/02/08 07:14:04;;;;;;;6.22;2.33;;;;;;;16.95;54.46;102529.59;4969161;28;20026;-82
2022/02/08 07:16:30;;;;;;;6.97;2.60;;;;;;;16.95;54.63;102538.28;4985711;28;20030;-83
2022/02/08 07:18:55;;;;;;;6.90;2.47;;;;;;;16.95;54.52;102525.28;4987121;28;20565;-82
2022/02/08 07:21:21;;;;;;;5.60;2.03;;;;;;;16.97;54.78;102533.13;4989592;28;20425;-82
2022/02/08 07:23:46;;;;;;;6.22;2.30;;;;;;;16.96;54.65;102527.03;4972399;28;20093;-82
2022/02/08 07:26:11;;;;;;;6.78;2.17;;;;;;;16.98;54.56;102529.66;4990066;28;20022;-82
2022/02/08 07:28:41;;;;;;;5.38;2.17;;;;;;;17.00;54.48;102528.84;4971811;28;20034;-82
2022/02/08 07:31:21;;;;;;;4.50;2.08;;;;;;;16.99;54.44;102534.03;5005478;28;20023;-82
2022/02/08 07:33:58;;;;;;;3.80;1.80;;;;;;;16.98;54.72;102548.72;4988329;28;20034;-82
2022/02/08 07:42:06;;;;;;;5.35;1.75;;;;;;;16.98;54.71;102553.94;5008884;28;20012;-82
2022/02/08 07:44:32;;;;;;;5.10;2.15;;;;;;;16.99;54.48;102557.44;4998054;28;20026;-82
2022/02/08 07:46:57;;;;;;;5.38;2.17;;;;;;;16.99;54.50;102562.63;4975356;28;20035;-82
2022/02/08 07:49:23;;;;;;;6.15;2.20;;;;;;;16.99;54.46;102566.09;5010411;28;20123;-82
2022/02/08 07:51:48;;;;;;;5.78;2.20;;;;;;;17.01;54.30;102572.22;4982785;28;20022;-83
2022/02/08 07:54:14;;;;;;;6.93;2.35;;;;;;;17.02;54.41;102576.56;4995022;28;20049;-82
2022/02/08 07:56:39;;;;;;;5.43;2.00;;;;;;;17.05;54.28;102579.25;4989721;28;20027;-81
2022/02/08 07:59:05;;;;;;;4.88;1.80;;;;;;;17.08;54.36;102580.16;4991543;28;20550;-82
2022/02/08 08:01:31;;;;;;;6.88;2.22;;;;;;;17.09;54.40;102574.09;4973375;28;20062;-82
2022/02/08 08:03:56;;;;;;;4.05;1.83;;;;;;;17.10;54.29;102584.53;4972153;28;20037;-82
2022/02/08 08:06:22;;;;;;;4.53;1.80;;;;;;;17.12;54.30;102581.97;4972202;28;20085;-82
2022/02/08 08:08:47;;;;;;;5.03;2.20;;;;;;;17.13;54.11;102578.50;4974594;28;20105;-82
2022/02/08 08:11:17;;;;;;;5.30;1.98;;;;;;;17.12;54.28;102585.44;4977525;28;20027;-82
2022/02/08 08:13:49;;;;;;;4.75;2.03;;;;;;;17.14;54.22;102582.88;4991329;28;20037;-81
2022/02/08 08:19:03;;;;;;;4.95;1.92;;;;;;;17.19;54.07;102583.84;5010332;28;20058;-82
2022/02/08 08:21:30;;;;;;;4.40;1.73;;;;;;;17.18;54.02;102580.38;4991960;28;20033;-82
2022/02/08 08:23:57;;;;;;;4.88;1.75;;;;;;;17.19;54.26;102591.66;4977184;28;20030;-82
2022/02/08 08:26:23;;;;;;;4.22;1.70;;;;;;;17.17;54.01;102596.81;5007124;28;20027;-82
2022/02/08 08:28:49;;;;;;;5.00;1.80;;;;;;;17.15;54.13;102593.28;4990656;28;20085;-82
2022/02/08 08:31:15;;;;;;;4.55;1.88;;;;;;;17.14;54.22;102590.69;5007854;28;20034;-82
2022/02/08 08:33:41;;;;;;;3.97;1.70;;;;;;;17.15;54.17;102590.69;4976191;28;20031;-83
2022/02/08 08:36:07;;;;;;;5.45;1.65;;;;;;;17.16;54.33;102594.16;4991161;28;20028;-79
2022/02/08 08:38:34;;;;;;;3.72;1.55;;;;;;;17.17;54.12;102593.34;4983765;28;20026;-80
2022/02/08 08:51:40;;;;;;;4.05;1.50;;;;;;;17.22;53.89;102608.22;4999328;28;19963;-79
2022/02/08 08:54:07;;;;;;;4.20;1.80;;;;;;;17.23;53.83;102591.72;4969392;28;20042;-80
2022/02/08 08:56:34;;;;;;;4.00;1.60;;;;;;;17.25;53.92;102604.78;4965714;28;20034;-80
2022/02/08 08:58:59;;;;;;;3.70;1.65;;;;;;;17.25;53.85;102602.19;4966057;28;20030;-79
2022/02/08 09:01:25;;;;;;;3.58;1.67;;;;;;;17.24;53.86;102598.69;4982111;28;20088;-79
2022/02/08 09:03:52;;;;;;;4.75;1.70;;;;;;;17.24;53.90;102592.59;4981636;28;20030;-79
2022/02/08 09:06:17;;;;;;;4.80;1.73;;;;;;;17.25;53.90;102597.84;4982861;28;20109;-79
2022/02/08 09:08:43;;;;;;;4.35;1.38;;;;;;;17.26;53.89;102581.38;4967306;28;20050;-79
2022/02/08 09:11:16;;;;;;;2.17;1.23;;;;;;;17.28;53.69;102586.63;4966076;28;20053;-79
2022/02/08 09:13:56;;;;;;;3.13;1.45;;;;;;;17.33;53.67;102584.09;4966114;28;20031;-79
2022/02/08 09:19:10;;;;;;;3.45;1.27;;;;;;;17.38;53.85;102590.28;4981244;28;20034;-79
2022/02/08 09:24:31;;;;;;;4.38;1.40;;;;;;;17.41;53.43;102604.22;4981314;28;20441;-78
2022/02/08 09:29:38;;;;;;;3.92;1.60;;;;;;;17.50;53.33;102595.69;4981746;28;20117;-78
2022/02/08 09:34:56;;;;;;;4.25;1.58;;;;;;;17.51;53.29;102604.38;4993461;28;20034;-79
2022/02/08 09:37:22;;;;;;;2.97;1.48;;;;;;;17.50;53.17;102597.44;4984164;28;20034;-80
2022/02/08 09:39:51;;;;;;;3.40;1.65;;;;;;;17.50;53.21;102600.03;4984130;28;20038;-79
2022/02/08 09:42:18;;;;;;;3.90;1.27;;;;;;;17.48;53.52;102613.91;4982871;28;20389;-79
2022/02/08 09:44:43;;;;;;;3.55;1.58;;;;;;;17.47;53.11;102606.06;4981744;28;20057;-79
2022/02/08 09:47:11;;;;;;;3.03;1.20;;;;;;;17.46;53.23;102604.31;4965903;28;20030;-80
2022/02/08 09:49:41;;;;;;;3.25;1.50;;;;;;;17.45;53.21;102593.03;4981518;28;20134;-79
2022/02/08 09:52:07;;;;;;;4.07;1.60;;;;;;;17.45;53.30;102586.94;4980932;28;20022;-79
2022/02/08 09:54:34;;;;;;;4.20;1.48;;;;;;;17.45;53.20;102605.16;4998727;28;20105;-79
2022/02/08 09:56:59;;;;;;;3.47;1.30;;;;;;;17.44;53.02;102604.28;4965302;28;20030;-79
2022/02/08 09:59:25;;;;;;;3.40;1.27;;;;;;;17.45;53.18;102607.75;4981435;28;20077;-79
2022/02/08 10:01:52;;;;;;;3.63;1.48;;;;;;;17.46;53.17;102601.69;4981029;28;20030;-79
2022/02/08 10:04:18;;;;;;;4.30;1.73;;;;;;;17.45;53.18;102595.63;4998775;28;20034;-79
2022/02/08 10:06:43;;;;;;;3.38;1.40;;;;;;;17.44;53.11;102590.38;4980668;28;20031;-79
2022/02/08 10:09:09;;;;;;;4.18;1.20;;;;;;;17.43;53.24;102593.84;4964283;28;20029;-79
2022/02/08 10:11:56;;;;;;;2.85;1.20;;;;;;;17.41;53.29;102593.81;4964497;28;20034;-79
2022/02/08 10:14:37;;;;;;;4.60;1.58;;;;;;;17.42;52.96;102597.28;4979540;28;20026;-79
2022/02/08 10:22:31;;;;;;;4.53;1.63;;;;;;;17.40;53.09;102599.88;4997125;28;20428;-79
2022/02/08 10:25:02;;;;;;;3.67;1.50;;;;;;;17.40;53.16;102606.81;4979600;28;20105;-79
2022/02/08 10:30:15;;;;;;;4.10;1.63;;;;;;;17.41;52.90;102611.16;4980364;28;20035;-79
2022/02/08 10:38:44;;;;;;;3.95;1.60;;;;;;;17.48;52.57;102613.91;4917606;29;20024;-79
2022/02/08 10:41:15;;;;;;;5.28;1.48;;;;;;;17.49;52.74;102612.19;4972469;28;20034;-79
2022/02/08 10:43:42;;;;;;;3.92;1.20;;;;;;;17.50;53.01;102603.50;4980917;28;20030;-79
2022/02/08 10:46:21;;;;;;;3.45;1.33;;;;;;;17.52;52.73;102606.16;4963975;28;20034;-79
2022/02/08 10:48:47;;;;;;;2.92;1.10;;;;;;;17.52;52.81;102600.94;4979185;28;20038;-79
2022/02/08 10:51:17;;;;;;;4.05;1.40;;;;;;;17.51;52.48;102594.88;4995716;28;20042;-79
2022/02/08 10:53:55;;;;;;;4.53;1.20;;;;;;;17.50;52.62;102592.22;4979582;28;20037;-78
2022/02/08 10:56:24;;;;;;;5.28;1.52;;;;;;;17.48;52.92;102593.09;4981157;28;20026;-79
2022/02/08 10:58:56;;;;;;;3.67;1.60;;;;;;;17.47;52.50;102595.66;4979868;28;20113;-79
2022/02/08 11:01:27;;;;;;;3.30;1.52;;;;;;;17.46;52.61;102596.50;4963335;28;20444;-79
2022/02/08 11:20:42;;;;;;;6.40;1.48;;;;;;;17.44;52.44;102595.59;4973737;28;20576;-79
2022/02/08 11:23:45;;;;;;;3.47;1.20;;;;;;;17.44;52.56;102593.88;4995180;28;20054;-79
2022/02/08 11:26:13;;;;;;;3.78;1.40;;;;;;;17.43;52.39;102596.44;4978858;28;20057;-79
2022/02/08 11:28:45;;;;;;;2.97;1.30;;;;;;;17.42;52.33;102592.97;4978428;28;20034;-79
2022/02/08 11:31:32;;;;;;;5.20;1.87;;;;;;;17.43;52.32;102596.44;4962743;28;20059;-80
2022/02/08 11:39:02;;;;;;;3.63;1.48;;;;;;;17.43;52.43;102599.91;4977801;28;20045;-80
2022/02/08 11:40:43;;;;;;;4.05;1.27;;;;;;;17.44;52.17;102608.59;4983364;28;20034;-79
2022/02/08 12:05:15;;;;;;;3.20;1.10;;;;;;;17.48;52.26;102594.78;5005997;28;20026;-79
2022/02/08 12:07:56;;;;;;;4.78;1.70;;;;;;;17.48;52.02;102608.72;4987923;28;20102;-79
2022/02/08 12:10:29;;;;;;;4.38;1.60;;;;;;;17.47;51.97;102616.47;4989890;28;20031;-79
2022/02/08 12:35:34;;;;;;;3.75;1.30;;;;;;;17.50;51.77;102594.84;4996119;28;20038;-79
2022/02/08 13:04:56;;;;;;;4.03;1.50;;;;;;;17.47;51.80;102593.06;5002468;28;20035;-80
2022/02/08 14:01:40;;;;;;;;;;;;;;;17.48;51.96;102592.19;4983488;28;20105;-79
2022/02/08 14:07:58;;;;;;;3.75;1.20;;;;;;;17.48;51.89;102600.91;4983545;28;20092;-79
2022/02/08 14:11:20;;;;;;;3.92;1.15;;;;;;;17.50;52.01;102589.63;5005930;28;20082;-80
2022/02/08 14:31:59;;;;;;;3.90;1.30;;;;;;;17.81;52.44;102596.25;5004040;28;20032;-79
2022/02/08 14:35:35;;;;;;;3.97;1.52;;;;;;;17.79;52.30;102596.25;4984781;28;20022;-78
2022/02/08 14:49:05;;;;;;;;;;;;;;;17.76;52.57;102582.28;4981876;28;20574;-78
2022/02/08 15:09:52;;;;;;;3.28;1.10;;;;;;;17.66;52.51;102584.75;4977124;28;19920;-79
2022/02/08 15:12:20;;;;;;;3.90;1.20;;;;;;;17.65;52.31;102589.91;4959393;28;20035;-79
2022/02/08 15:14:55;;;;;;;4.35;1.40;;;;;;;17.66;52.38;102587.34;4959124;28;20057;-79
2022/02/08 15:17:20;;;;;;;4.38;1.20;;;;;;;17.65;52.54;102597.72;4960077;28;20082;-78
2022/02/08 15:19:49;;;;;;;4.30;1.50;;;;;;;17.65;52.58;102609.00;4975619;28;20031;-79
2022/02/08 15:22:15;;;;;;;2.95;1.00;;;;;;;17.65;52.42;102609.00;4965487;28;20537;-84
2022/02/08 15:24:50;;;;;;;5.03;1.70;;;;;;;17.64;52.67;102611.59;4971128;28;20018;-81
2022/02/08 15:27:17;;;;;;;3.40;1.30;;;;;;;17.62;52.62;102595.06;4985656;28;20034;-83
2022/02/08 15:29:43;;;;;;;4.78;1.55;;;;;;;17.61;52.57;102599.38;4975828;28;20030;-79
2022/02/08 15:32:14;;;;;;;3.47;1.52;;;;;;;17.61;52.71;102598.50;4979085;28;20042;-79
2022/02/08 15:34:42;;;;;;;4.82;1.52;;;;;;;17.63;52.43;102607.22;4960701;28;20033;-79
2022/02/08 15:37:08;;;;;;;8.02;1.73;;;;;;;17.64;52.64;102609.00;4960553;28;20525;-79
2022/02/08 15:39:33;;;;;;;3.42;1.60;;;;;;;17.67;52.57;102606.44;4964689;28;20054;-79
2022/02/08 15:41:58;;;;;;;3.97;1.38;;;;;;;17.67;52.71;102602.09;4964757;28;20034;-79
2022/02/08 15:44:26;;;;;;;4.50;1.60;;;;;;;17.67;52.66;102603.84;4981216;28;20038;-79
2022/02/08 15:46:52;;;;;;;4.13;1.45;;;;;;;17.65;52.64;102616.81;4960183;28;20497;-79
2022/02/08 15:49:18;;;;;;;4.95;1.30;;;;;;;17.65;52.53;102616.81;4978958;28;20065;-79
2022/02/08 15:51:46;;;;;;;5.55;1.60;;;;;;;17.65;52.69;102608.13;5001064;28;20464;-79
2022/02/08 15:54:33;;;;;;;6.25;1.50;;;;;;;17.62;52.63;102613.28;4968407;28;20112;-79
2022/02/08 16:07:41;;;;;;;3.83;1.40;;;;;;;17.58;52.74;102606.28;5000431;28;20037;-78
2022/02/08 16:10:18;;;;;;;3.67;1.50;;;;;;;17.57;52.77;102600.19;4980578;28;20030;-78
2022/02/08 16:18:04;;;;;;;5.53;1.67;;;;;;;17.54;53.13;102613.13;4981816;28;20026;-79
2022/02/08 16:58:40;;;;;;;4.60;1.45;;;;;;;17.48;52.82;102639.03;4979381;28;20482;-78
2022/02/08 17:03:54;;;;;;;5.03;1.65;;;;;;;17.48;52.86;102628.63;4967894;28;20035;-80
2022/02/08 17:06:26;;;;;;;5.50;1.60;;;;;;;17.47;52.78;102630.38;4980389;28;20081;-78
2022/02/08 17:09:01;;;;;;;4.00;1.38;;;;;;;17.47;52.88;102632.97;4966201;28;20023;-78
2022/02/08 17:11:37;;;;;;;4.43;1.35;;;;;;;17.48;52.97;102628.63;4966624;28;20116;-78
2022/02/08 17:17:16;;;;;;;5.22;1.50;;;;;;;17.47;52.73;102626.91;4966708;28;20026;-79
2022/02/08 17:34:35;;;;;;;5.15;1.52;;;;;;;17.46;52.89;102620.81;4966072;28;20053;-77
2022/02/08 17:46:47;;;;;;;4.43;1.17;;;;;;;17.44;52.66;102622.50;4976880;28;20038;-78
2022/02/08 17:49:12;;;;;;;4.75;1.63;;;;;;;17.44;52.87;102626.81;4982225;28;20117;-78
2022/02/08 17:51:38;;;;;;;4.05;1.48;;;;;;;17.43;52.79;102623.34;4978838;28;20594;-78
2022/02/08 17:54:04;;;;;;;4.13;1.38;;;;;;;17.44;53.07;102616.41;4978908;28;20026;-78
2022/02/08 17:56:30;;;;;;;3.20;1.67;;;;;;;17.43;52.82;102615.53;4962871;28;20172;-78
2022/02/08 17:58:55;;;;;;;4.57;1.58;;;;;;;17.44;52.75;102617.31;4996425;28;20080;-78
2022/02/08 18:01:22;;;;;;;3.72;1.42;;;;;;;17.43;52.67;102612.94;4979154;28;20041;-78
2022/02/08 18:03:49;;;;;;;4.90;1.48;;;;;;;17.43;52.85;102615.53;4963209;28;20018;-78
2022/02/08 18:06:14;;;;;;;3.60;1.40;;;;;;;17.42;52.78;102613.78;4979163;28;20022;-77
2022/02/08 18:08:41;;;;;;;4.15;1.13;;;;;;;17.41;52.96;102627.63;4964550;28;20080;-82
2022/02/08 18:11:06;;;;;;;3.92;1.70;;;;;;;17.43;52.61;102631.16;4954230;28;20026;-79
2022/02/08 18:13:41;;;;;;;4.45;1.60;;;;;;;17.42;52.86;102634.63;4977408;28;20061;-86
2022/02/08 18:16:06;;;;;;;8.95;1.48;;;;;;;17.42;52.72;102621.59;4996632;28;20037;-78
2022/02/08 18:19:22;;;;;;;4.70;1.75;;;;;;;17.42;53.00;102633.72;5013609;28;20026;-86
2022/02/08 18:21:58;;;;;;;4.75;1.60;;;;;;;17.44;52.99;102632.03;4993268;28;20026;-80
2022/02/08 18:57:44;;;;;;;4.50;1.40;;;;;;;17.49;53.21;102638.22;4981591;28;20031;-78
2022/02/08 19:07:00;;;;;;;;;;;;;;;17.48;53.41;102646.84;4967779;28;20045;-78
2022/02/08 19:11:42;;;;;;;;;;;;;;;17.47;53.51;102648.59;4981482;28;20038;-78
2022/02/08 19:19:23;;;;;;;3.97;1.50;;;;;;;17.47;53.72;102660.72;4979584;28;20354;-78
2022/02/08 19:21:54;;;;;;;6.43;1.75;;;;;;;17.47;54.02;102658.13;4980872;28;20041;-78
2022/02/08 19:24:22;;;;;;;5.65;1.58;;;;;;;17.46;54.07;102659.84;4979245;28;20041;-78
2022/02/08 19:26:49;;;;;;;6.65;1.70;;;;;;;17.47;54.04;102655.53;4981083;28;20053;-78
2022/02/08 19:29:17;;;;;;;6.05;1.55;;;;;;;17.46;53.87;102656.34;4999237;28;20129;-78
2022/02/08 19:31:46;;;;;;;3.95;1.60;;;;;;;17.45;54.04;102652.88;4964818;28;20488;-78